sensor_id;sensor_type;location;lat;lon;timestamp;P1;durP1;ratioP1;P2;durP2;ratioP2
9972;SDS011;5027;53.560;10.062;2023-04-24T00:01:04;4.63;;;3.63;;
9972;SDS011;5027;53.560;10.062;2023-04-24T00:03:33;4.23;;;3.83;;
9972;SDS011;5027;53.560;10.062;2023-04-24T00:06:01;3.47;;;3.13;;
9972;SDS011;5027;53.560;10.062;2023-04-24T00:08:28;4.30;;;3.20;;
9972;SDS011;5027;53.560;10.062;2023-04-24T00:10:55;5.13;;;3.73;;
9972;SDS011;5027;53.560;10.062;2023-04-24T00:13:22;3.70;;;3.40;;
9972;SDS011;5027;53.560;10.062;2023-04-24T00:15:48;5.53;;;3.60;;
9972;SDS011;5027;53.560;10.062;2023-04-24T00:18:15;4.10;;;3.80;;
9972;SDS011;5027;53.560;10.062;2023-04-24T00:20:42;3.93;;;3.63;;
9972;SDS011;5027;53.560;10.062;2023-04-24T00:23:09;3.87;;;3.50;;
9972;SDS011;5027;53.560;10.062;2023-04-24T00:25:36;4.07;;;3.77;;
9972;SDS011;5027;53.560;10.062;2023-04-24T00:28:03;4.23;;;3.83;;
9972;SDS011;5027;53.560;10.062;2023-04-24T00:30:29;4.23;;;3.80;;
9972;SDS011;5027;53.560;10.062;2023-04-24T00:32:56;3.87;;;3.33;;
9972;SDS011;5027;53.560;10.062;2023-04-24T00:35:23;3.90;;;3.50;;
9972;SDS011;5027;53.560;10.062;2023-04-24T00:37:50;3.80;;;3.50;;
9972;SDS011;5027;53.560;10.062;2023-04-24T00:40:17;4.27;;;3.90;;
9972;SDS011;5027;53.560;10.062;2023-04-24T00:42:44;4.80;;;3.80;;
9972;SDS011;5027;53.560;10.062;2023-04-24T00:45:11;3.87;;;3.50;;
9972;SDS011;5027;53.560;10.062;2023-04-24T00:47:39;4.27;;;3.77;;
9972;SDS011;5027;53.560;10.062;2023-04-24T00:50:07;4.20;;;3.80;;
9972;SDS011;5027;53.560;10.062;2023-04-24T00:52:34;4.30;;;4.00;;
9972;SDS011;5027;53.560;10.062;2023-04-24T00:55:02;3.50;;;3.20;;
9972;SDS011;5027;53.560;10.062;2023-04-24T00:57:29;4.20;;;3.90;;
9972;SDS011;5027;53.560;10.062;2023-04-24T00:59:56;4.17;;;3.87;;
9972;SDS011;5027;53.560;10.062;2023-04-24T01:02:23;5.03;;;4.30;;
9972;SDS011;5027;53.560;10.062;2023-04-24T01:04:51;4.10;;;3.80;;
9972;SDS011;5027;53.560;10.062;2023-04-24T01:07:21;4.40;;;4.00;;
9972;SDS011;5027;53.560;10.062;2023-04-24T01:09:50;6.83;;;3.83;;
9972;SDS011;5027;53.560;10.062;2023-04-24T01:12:18;4.77;;;3.77;;
9972;SDS011;5027;53.560;10.062;2023-04-24T01:14:45;6.53;;;3.90;;
9972;SDS011;5027;53.560;10.062;2023-04-24T01:17:14;4.70;;;3.67;;
9972;SDS011;5027;53.560;10.062;2023-04-24T01:19:41;6.23;;;4.40;;
9972;SDS011;5027;53.560;10.062;2023-04-24T01:22:12;4.77;;;3.83;;
9972;SDS011;5027;53.560;10.062;2023-04-24T01:24:43;3.93;;;3.63;;
9972;SDS011;5027;53.560;10.062;2023-04-24T01:27:11;3.80;;;3.47;;
9972;SDS011;5027;53.560;10.062;2023-04-24T01:29:38;4.30;;;3.90;;
9972;SDS011;5027;53.560;10.062;2023-04-24T01:32:05;4.30;;;3.87;;
9972;SDS011;5027;53.560;10.062;2023-04-24T01:34:32;5.20;;;3.73;;
9972;SDS011;5027;53.560;10.062;2023-04-24T01:37:00;4.17;;;3.63;;
9972;SDS011;5027;53.560;10.062;2023-04-24T01:39:26;3.87;;;3.57;;
9972;SDS011;5027;53.560;10.062;2023-04-24T01:41:54;4.77;;;3.97;;
9972;SDS011;5027;53.560;10.062;2023-04-24T01:44:22;5.97;;;3.57;;
9972;SDS011;5027;53.560;10.062;2023-04-24T01:46:49;4.40;;;3.60;;
9972;SDS011;5027;53.560;10.062;2023-04-24T01:49:16;3.90;;;3.60;;
9972;SDS011;5027;53.560;10.062;2023-04-24T01:51:43;4.13;;;3.77;;
9972;SDS011;5027;53.560;10.062;2023-04-24T01:54:10;3.63;;;3.33;;
9972;SDS011;5027;53.560;10.062;2023-04-24T01:56:39;3.63;;;3.33;;
9972;SDS011;5027;53.560;10.062;2023-04-24T01:59:09;3.20;;;3.00;;
9972;SDS011;5027;53.560;10.062;2023-04-24T02:01:37;3.20;;;2.83;;
9972;SDS011;5027;53.560;10.062;2023-04-24T02:04:05;3.13;;;2.93;;
9972;SDS011;5027;53.560;10.062;2023-04-24T02:06:34;2.87;;;2.67;;
9972;SDS011;5027;53.560;10.062;2023-04-24T02:09:01;3.07;;;2.87;;
9972;SDS011;5027;53.560;10.062;2023-04-24T02:11:29;2.77;;;2.57;;
9972;SDS011;5027;53.560;10.062;2023-04-24T02:13:56;2.73;;;2.50;;
9972;SDS011;5027;53.560;10.062;2023-04-24T02:16:23;3.10;;;2.80;;
9972;SDS011;5027;53.560;10.062;2023-04-24T02:18:50;3.03;;;2.73;;
9972;SDS011;5027;53.560;10.062;2023-04-24T02:21:16;3.87;;;2.60;;
9972;SDS011;5027;53.560;10.062;2023-04-24T02:23:43;2.77;;;2.53;;
9972;SDS011;5027;53.560;10.062;2023-04-24T02:26:11;3.87;;;2.70;;
9972;SDS011;5027;53.560;10.062;2023-04-24T02:28:38;4.80;;;2.93;;
9972;SDS011;5027;53.560;10.062;2023-04-24T02:31:05;3.47;;;2.40;;
9972;SDS011;5027;53.560;10.062;2023-04-24T02:33:32;2.57;;;2.37;;
9972;SDS011;5027;53.560;10.062;2023-04-24T02:35:59;3.00;;;2.80;;
9972;SDS011;5027;53.560;10.062;2023-04-24T02:38:26;2.90;;;2.70;;
9972;SDS011;5027;53.560;10.062;2023-04-24T02:40:52;2.60;;;2.30;;
9972;SDS011;5027;53.560;10.062;2023-04-24T02:43:19;2.63;;;2.43;;
9972;SDS011;5027;53.560;10.062;2023-04-24T02:45:46;1.90;;;1.80;;
9972;SDS011;5027;53.560;10.062;2023-04-24T02:48:13;2.87;;;2.10;;
9972;SDS011;5027;53.560;10.062;2023-04-24T02:50:40;2.13;;;2.00;;
9972;SDS011;5027;53.560;10.062;2023-04-24T02:53:06;2.83;;;2.10;;
9972;SDS011;5027;53.560;10.062;2023-04-24T02:55:33;2.23;;;1.77;;
9972;SDS011;5027;53.560;10.062;2023-04-24T02:58:00;2.20;;;2.00;;
9972;SDS011;5027;53.560;10.062;2023-04-24T03:00:27;4.20;;;2.07;;
9972;SDS011;5027;53.560;10.062;2023-04-24T03:02:53;3.30;;;2.00;;
9972;SDS011;5027;53.560;10.062;2023-04-24T03:05:21;1.70;;;1.60;;
9972;SDS011;5027;53.560;10.062;2023-04-24T03:07:47;1.70;;;1.60;;
9972;SDS011;5027;53.560;10.062;2023-04-24T03:10:14;3.33;;;2.13;;
9972;SDS011;5027;53.560;10.062;2023-04-24T03:12:41;1.70;;;1.60;;
9972;SDS011;5027;53.560;10.062;2023-04-24T03:15:07;2.77;;;1.80;;
9972;SDS011;5027;53.560;10.062;2023-04-24T03:17:36;1.80;;;1.70;;
9972;SDS011;5027;53.560;10.062;2023-04-24T03:20:04;2.47;;;1.87;;
9972;SDS011;5027;53.560;10.062;2023-04-24T03:22:32;2.20;;;1.60;;
9972;SDS011;5027;53.560;10.062;2023-04-24T03:25:00;2.03;;;1.80;;
9972;SDS011;5027;53.560;10.062;2023-04-24T03:27:28;1.70;;;1.60;;
9972;SDS011;5027;53.560;10.062;2023-04-24T03:30:18;2.33;;;1.50;;
9972;SDS011;5027;53.560;10.062;2023-04-24T03:32:50;1.30;;;1.20;;
9972;SDS011;5027;53.560;10.062;2023-04-24T03:35:22;2.93;;;1.63;;
9972;SDS011;5027;53.560;10.062;2023-04-24T03:37:49;1.70;;;1.60;;
9972;SDS011;5027;53.560;10.062;2023-04-24T03:40:35;2.03;;;1.43;;
9972;SDS011;5027;53.560;10.062;2023-04-24T03:43:06;2.30;;;1.67;;
9972;SDS011;5027;53.560;10.062;2023-04-24T03:45:33;2.23;;;1.50;;
9972;SDS011;5027;53.560;10.062;2023-04-24T03:48:00;1.97;;;1.80;;
9972;SDS011;5027;53.560;10.062;2023-04-24T03:50:28;1.47;;;1.23;;
9972;SDS011;5027;53.560;10.062;2023-04-24T03:52:56;2.73;;;1.57;;
9972;SDS011;5027;53.560;10.062;2023-04-24T03:55:33;2.37;;;1.70;;
9972;SDS011;5027;53.560;10.062;2023-04-24T03:57:59;1.77;;;1.67;;
9972;SDS011;5027;53.560;10.062;2023-04-24T04:00:26;3.40;;;1.77;;
9972;SDS011;5027;53.560;10.062;2023-04-24T04:03:13;2.90;;;1.80;;
9972;SDS011;5027;53.560;10.062;2023-04-24T04:05:41;1.77;;;1.50;;
9972;SDS011;5027;53.560;10.062;2023-04-24T04:08:07;1.73;;;1.47;;
9972;SDS011;5027;53.560;10.062;2023-04-24T04:10:34;1.57;;;1.47;;
9972;SDS011;5027;53.560;10.062;2023-04-24T04:13:03;2.20;;;1.70;;
9972;SDS011;5027;53.560;10.062;2023-04-24T04:15:30;1.70;;;1.60;;
9972;SDS011;5027;53.560;10.062;2023-04-24T04:17:57;1.53;;;1.43;;
9972;SDS011;5027;53.560;10.062;2023-04-24T04:20:24;1.93;;;1.50;;
9972;SDS011;5027;53.560;10.062;2023-04-24T04:22:51;2.13;;;1.50;;
9972;SDS011;5027;53.560;10.062;2023-04-24T04:25:26;1.60;;;1.50;;
9972;SDS011;5027;53.560;10.062;2023-04-24T04:27:52;3.63;;;1.60;;
9972;SDS011;5027;53.560;10.062;2023-04-24T04:30:19;2.10;;;1.60;;
9972;SDS011;5027;53.560;10.062;2023-04-24T04:32:54;1.67;;;1.30;;
9972;SDS011;5027;53.560;10.062;2023-04-24T04:35:21;2.03;;;1.83;;
9972;SDS011;5027;53.560;10.062;2023-04-24T04:37:49;1.50;;;1.37;;
9972;SDS011;5027;53.560;10.062;2023-04-24T04:40:36;1.60;;;1.50;;
9972;SDS011;5027;53.560;10.062;2023-04-24T04:43:04;1.83;;;1.57;;
9972;SDS011;5027;53.560;10.062;2023-04-24T04:45:39;1.57;;;1.47;;
9972;SDS011;5027;53.560;10.062;2023-04-24T04:48:26;1.63;;;1.50;;
9972;SDS011;5027;53.560;10.062;2023-04-24T04:50:55;2.80;;;1.20;;
9972;SDS011;5027;53.560;10.062;2023-04-24T04:53:22;1.80;;;1.50;;
9972;SDS011;5027;53.560;10.062;2023-04-24T04:55:50;2.80;;;1.50;;
9972;SDS011;5027;53.560;10.062;2023-04-24T04:58:18;1.60;;;1.50;;
9972;SDS011;5027;53.560;10.062;2023-04-24T05:00:47;1.57;;;1.37;;
9972;SDS011;5027;53.560;10.062;2023-04-24T05:03:25;1.40;;;1.30;;
9972;SDS011;5027;53.560;10.062;2023-04-24T05:05:57;1.93;;;1.67;;
9972;SDS011;5027;53.560;10.062;2023-04-24T05:08:25;2.07;;;1.63;;
9972;SDS011;5027;53.560;10.062;2023-04-24T05:10:54;4.23;;;1.80;;
9972;SDS011;5027;53.560;10.062;2023-04-24T05:13:21;2.43;;;1.90;;
9972;SDS011;5027;53.560;10.062;2023-04-24T05:16:08;2.40;;;1.80;;
9972;SDS011;5027;53.560;10.062;2023-04-24T05:18:35;3.47;;;1.60;;
9972;SDS011;5027;53.560;10.062;2023-04-24T05:21:03;1.70;;;1.60;;
9972;SDS011;5027;53.560;10.062;2023-04-24T05:23:30;2.83;;;1.80;;
9972;SDS011;5027;53.560;10.062;2023-04-24T05:25:56;2.80;;;1.53;;
9972;SDS011;5027;53.560;10.062;2023-04-24T05:28:23;3.23;;;1.90;;
9972;SDS011;5027;53.560;10.062;2023-04-24T05:31:03;2.43;;;1.50;;
9972;SDS011;5027;53.560;10.062;2023-04-24T05:33:29;1.47;;;1.20;;
9972;SDS011;5027;53.560;10.062;2023-04-24T05:35:56;2.97;;;1.43;;
9972;SDS011;5027;53.560;10.062;2023-04-24T05:38:24;2.20;;;1.30;;
9972;SDS011;5027;53.560;10.062;2023-04-24T05:40:50;4.70;;;1.30;;
9972;SDS011;5027;53.560;10.062;2023-04-24T05:43:17;1.30;;;1.20;;
9972;SDS011;5027;53.560;10.062;2023-04-24T05:45:44;1.47;;;1.37;;
9972;SDS011;5027;53.560;10.062;2023-04-24T05:48:10;1.30;;;1.20;;
9972;SDS011;5027;53.560;10.062;2023-04-24T05:50:37;2.10;;;1.40;;
9972;SDS011;5027;53.560;10.062;2023-04-24T05:53:04;1.30;;;1.20;;
9972;SDS011;5027;53.560;10.062;2023-04-24T05:55:35;3.00;;;1.43;;
9972;SDS011;5027;53.560;10.062;2023-04-24T05:58:02;2.60;;;1.30;;
9972;SDS011;5027;53.560;10.062;2023-04-24T06:00:29;1.40;;;1.30;;
9972;SDS011;5027;53.560;10.062;2023-04-24T06:03:04;1.30;;;1.20;;
9972;SDS011;5027;53.560;10.062;2023-04-24T06:05:31;2.43;;;1.77;;
9972;SDS011;5027;53.560;10.062;2023-04-24T06:07:58;2.87;;;1.60;;
9972;SDS011;5027;53.560;10.062;2023-04-24T06:10:30;1.53;;;1.23;;
9972;SDS011;5027;53.560;10.062;2023-04-24T06:12:57;2.00;;;1.73;;
9972;SDS011;5027;53.560;10.062;2023-04-24T06:15:30;2.77;;;1.97;;
9972;SDS011;5027;53.560;10.062;2023-04-24T06:18:03;2.30;;;1.73;;
9972;SDS011;5027;53.560;10.062;2023-04-24T06:20:30;3.30;;;2.70;;
9972;SDS011;5027;53.560;10.062;2023-04-24T06:22:56;2.17;;;1.73;;
9972;SDS011;5027;53.560;10.062;2023-04-24T06:25:26;1.77;;;1.60;;
9972;SDS011;5027;53.560;10.062;2023-04-24T06:27:54;3.10;;;1.70;;
9972;SDS011;5027;53.560;10.062;2023-04-24T06:30:21;1.50;;;1.40;;
9972;SDS011;5027;53.560;10.062;2023-04-24T06:32:47;2.63;;;1.70;;
9972;SDS011;5027;53.560;10.062;2023-04-24T06:35:14;2.97;;;1.70;;
9972;SDS011;5027;53.560;10.062;2023-04-24T06:37:41;1.80;;;1.30;;
9972;SDS011;5027;53.560;10.062;2023-04-24T06:40:09;4.73;;;1.93;;
9972;SDS011;5027;53.560;10.062;2023-04-24T06:42:36;1.83;;;1.70;;
9972;SDS011;5027;53.560;10.062;2023-04-24T06:45:03;3.37;;;1.63;;
9972;SDS011;5027;53.560;10.062;2023-04-24T06:47:31;3.43;;;1.60;;
9972;SDS011;5027;53.560;10.062;2023-04-24T06:49:58;1.93;;;1.67;;
9972;SDS011;5027;53.560;10.062;2023-04-24T06:52:24;3.70;;;1.67;;
9972;SDS011;5027;53.560;10.062;2023-04-24T06:54:51;3.00;;;2.00;;
9972;SDS011;5027;53.560;10.062;2023-04-24T06:57:18;2.17;;;1.97;;
9972;SDS011;5027;53.560;10.062;2023-04-24T06:59:46;4.30;;;2.97;;
9972;SDS011;5027;53.560;10.062;2023-04-24T07:02:13;1.83;;;1.70;;
9972;SDS011;5027;53.560;10.062;2023-04-24T07:04:39;4.40;;;1.80;;
9972;SDS011;5027;53.560;10.062;2023-04-24T07:07:08;3.27;;;1.97;;
9972;SDS011;5027;53.560;10.062;2023-04-24T07:09:35;1.97;;;1.80;;
9972;SDS011;5027;53.560;10.062;2023-04-24T07:12:04;2.07;;;1.87;;
9972;SDS011;5027;53.560;10.062;2023-04-24T07:14:31;1.90;;;1.70;;
9972;SDS011;5027;53.560;10.062;2023-04-24T07:16:58;2.43;;;2.20;;
9972;SDS011;5027;53.560;10.062;2023-04-24T07:19:25;2.20;;;2.00;;
9972;SDS011;5027;53.560;10.062;2023-04-24T07:21:52;3.83;;;2.10;;
9972;SDS011;5027;53.560;10.062;2023-04-24T07:24:21;6.00;;;2.00;;
9972;SDS011;5027;53.560;10.062;2023-04-24T07:26:50;3.13;;;2.00;;
9972;SDS011;5027;53.560;10.062;2023-04-24T07:29:18;4.27;;;2.00;;
9972;SDS011;5027;53.560;10.062;2023-04-24T07:31:45;5.33;;;1.97;;
9972;SDS011;5027;53.560;10.062;2023-04-24T07:34:12;3.83;;;2.03;;
9972;SDS011;5027;53.560;10.062;2023-04-24T07:36:39;3.73;;;2.43;;
9972;SDS011;5027;53.560;10.062;2023-04-24T07:39:07;2.90;;;2.20;;
9972;SDS011;5027;53.560;10.062;2023-04-24T07:41:34;2.43;;;2.10;;
9972;SDS011;5027;53.560;10.062;2023-04-24T07:44:01;2.70;;;2.10;;
9972;SDS011;5027;53.560;10.062;2023-04-24T07:46:27;2.77;;;2.20;;
9972;SDS011;5027;53.560;10.062;2023-04-24T07:48:56;3.00;;;2.43;;
9972;SDS011;5027;53.560;10.062;2023-04-24T07:51:38;2.73;;;2.27;;
9972;SDS011;5027;53.560;10.062;2023-04-24T07:54:05;2.37;;;2.17;;
9972;SDS011;5027;53.560;10.062;2023-04-24T07:56:32;2.40;;;2.20;;
9972;SDS011;5027;53.560;10.062;2023-04-24T07:58:59;6.93;;;3.83;;
9972;SDS011;5027;53.560;10.062;2023-04-24T08:01:27;3.93;;;2.50;;
9972;SDS011;5027;53.560;10.062;2023-04-24T08:03:54;3.13;;;2.30;;
9972;SDS011;5027;53.560;10.062;2023-04-24T08:06:21;4.60;;;2.30;;
9972;SDS011;5027;53.560;10.062;2023-04-24T08:08:48;2.47;;;2.27;;
9972;SDS011;5027;53.560;10.062;2023-04-24T08:11:15;2.50;;;2.23;;
9972;SDS011;5027;53.560;10.062;2023-04-24T08:13:41;3.00;;;2.70;;
9972;SDS011;5027;53.560;10.062;2023-04-24T08:16:08;3.30;;;2.80;;
9972;SDS011;5027;53.560;10.062;2023-04-24T08:18:35;6.27;;;2.83;;
9972;SDS011;5027;53.560;10.062;2023-04-24T08:21:02;3.60;;;3.30;;
9972;SDS011;5027;53.560;10.062;2023-04-24T08:23:32;3.63;;;3.20;;
9972;SDS011;5027;53.560;10.062;2023-04-24T08:25:59;3.23;;;2.77;;
9972;SDS011;5027;53.560;10.062;2023-04-24T08:28:25;5.73;;;3.37;;
9972;SDS011;5027;53.560;10.062;2023-04-24T08:30:52;3.10;;;2.73;;
9972;SDS011;5027;53.560;10.062;2023-04-24T08:33:23;6.40;;;3.53;;
9972;SDS011;5027;53.560;10.062;2023-04-24T08:35:50;5.17;;;3.20;;
9972;SDS011;5027;53.560;10.062;2023-04-24T08:38:17;3.60;;;3.30;;
9972;SDS011;5027;53.560;10.062;2023-04-24T08:40:44;4.00;;;3.60;;
9972;SDS011;5027;53.560;10.062;2023-04-24T08:43:12;3.27;;;2.73;;
9972;SDS011;5027;53.560;10.062;2023-04-24T08:45:40;3.40;;;3.10;;
9972;SDS011;5027;53.560;10.062;2023-04-24T08:48:07;3.70;;;3.50;;
9972;SDS011;5027;53.560;10.062;2023-04-24T08:50:51;3.77;;;2.90;;
9972;SDS011;5027;53.560;10.062;2023-04-24T08:53:19;3.73;;;3.23;;
9972;SDS011;5027;53.560;10.062;2023-04-24T08:55:46;3.93;;;3.53;;
9972;SDS011;5027;53.560;10.062;2023-04-24T08:58:15;3.20;;;2.90;;
9972;SDS011;5027;53.560;10.062;2023-04-24T09:00:44;3.77;;;3.37;;
9972;SDS011;5027;53.560;10.062;2023-04-24T09:03:16;4.67;;;3.90;;
9972;SDS011;5027;53.560;10.062;2023-04-24T09:05:44;3.77;;;3.47;;
9972;SDS011;5027;53.560;10.062;2023-04-24T09:08:13;3.70;;;3.40;;
9972;SDS011;5027;53.560;10.062;2023-04-24T09:10:42;5.80;;;3.63;;
9972;SDS011;5027;53.560;10.062;2023-04-24T09:13:08;7.40;;;3.73;;
9972;SDS011;5027;53.560;10.062;2023-04-24T09:15:36;3.67;;;3.20;;
9972;SDS011;5027;53.560;10.062;2023-04-24T09:18:05;4.17;;;3.20;;
9972;SDS011;5027;53.560;10.062;2023-04-24T09:20:32;3.60;;;3.30;;
9972;SDS011;5027;53.560;10.062;2023-04-24T09:22:59;5.97;;;3.90;;
9972;SDS011;5027;53.560;10.062;2023-04-24T09:25:32;3.83;;;3.40;;
9972;SDS011;5027;53.560;10.062;2023-04-24T09:28:00;3.63;;;3.33;;
9972;SDS011;5027;53.560;10.062;2023-04-24T09:30:28;3.67;;;3.37;;
9972;SDS011;5027;53.560;10.062;2023-04-24T09:33:19;3.83;;;3.50;;
9972;SDS011;5027;53.560;10.062;2023-04-24T09:35:43;5.47;;;3.50;;
9972;SDS011;5027;53.560;10.062;2023-04-24T09:38:16;4.10;;;3.80;;
9972;SDS011;5027;53.560;10.062;2023-04-24T09:40:42;4.13;;;3.73;;
9972;SDS011;5027;53.560;10.062;2023-04-24T09:43:10;3.53;;;3.23;;
9972;SDS011;5027;53.560;10.062;2023-04-24T09:45:40;3.67;;;3.37;;
9972;SDS011;5027;53.560;10.062;2023-04-24T09:48:08;4.10;;;3.75;;
9972;SDS011;5027;53.560;10.062;2023-04-24T09:50:36;5.60;;;4.33;;
9972;SDS011;5027;53.560;10.062;2023-04-24T09:53:04;4.50;;;4.10;;
9972;SDS011;5027;53.560;10.062;2023-04-24T09:55:35;4.53;;;3.63;;
9972;SDS011;5027;53.560;10.062;2023-04-24T09:58:07;5.80;;;4.17;;
9972;SDS011;5027;53.560;10.062;2023-04-24T10:00:34;6.17;;;4.30;;
9972;SDS011;5027;53.560;10.062;2023-04-24T10:03:02;5.30;;;3.57;;
9972;SDS011;5027;53.560;10.062;2023-04-24T10:05:34;4.70;;;4.30;;
9972;SDS011;5027;53.560;10.062;2023-04-24T10:08:03;4.67;;;4.00;;
9972;SDS011;5027;53.560;10.062;2023-04-24T10:10:35;6.07;;;4.03;;
9972;SDS011;5027;53.560;10.062;2023-04-24T10:13:05;4.40;;;4.00;;
9972;SDS011;5027;53.560;10.062;2023-04-24T10:15:34;4.67;;;4.23;;
9972;SDS011;5027;53.560;10.062;2023-04-24T10:18:02;5.40;;;4.40;;
9972;SDS011;5027;53.560;10.062;2023-04-24T10:20:33;5.70;;;5.20;;
9972;SDS011;5027;53.560;10.062;2023-04-24T10:23:00;6.77;;;4.73;;
9972;SDS011;5027;53.560;10.062;2023-04-24T10:25:29;5.43;;;5.03;;
9972;SDS011;5027;53.560;10.062;2023-04-24T10:27:57;6.87;;;6.17;;
9972;SDS011;5027;53.560;10.062;2023-04-24T10:30:26;6.70;;;6.00;;
9972;SDS011;5027;53.560;10.062;2023-04-24T10:32:54;5.77;;;5.27;;
9972;SDS011;5027;53.560;10.062;2023-04-24T10:35:22;6.77;;;5.90;;
9972;SDS011;5027;53.560;10.062;2023-04-24T10:37:54;7.37;;;5.93;;
9972;SDS011;5027;53.560;10.062;2023-04-24T10:40:30;7.07;;;6.47;;
9972;SDS011;5027;53.560;10.062;2023-04-24T10:42:59;8.03;;;7.20;;
9972;SDS011;5027;53.560;10.062;2023-04-24T10:45:28;7.10;;;6.40;;
9972;SDS011;5027;53.560;10.062;2023-04-24T10:47:59;7.80;;;7.10;;
9972;SDS011;5027;53.560;10.062;2023-04-24T10:50:46;9.03;;;7.10;;
9972;SDS011;5027;53.560;10.062;2023-04-24T10:53:17;8.10;;;7.30;;
9972;SDS011;5027;53.560;10.062;2023-04-24T10:55:58;8.57;;;7.83;;
9972;SDS011;5027;53.560;10.062;2023-04-24T10:59:03;8.27;;;7.47;;
9972;SDS011;5027;53.560;10.062;2023-04-24T11:01:27;8.40;;;7.27;;
9972;SDS011;5027;53.560;10.062;2023-04-24T11:03:59;9.37;;;7.60;;
9972;SDS011;5027;53.560;10.062;2023-04-24T11:06:29;8.60;;;7.40;;
9972;SDS011;5027;53.560;10.062;2023-04-24T11:09:07;7.60;;;6.90;;
9972;SDS011;5027;53.560;10.062;2023-04-24T11:11:36;9.87;;;7.43;;
9972;SDS011;5027;53.560;10.062;2023-04-24T11:14:06;7.40;;;6.70;;
9972;SDS011;5027;53.560;10.062;2023-04-24T11:16:38;9.03;;;8.00;;
9972;SDS011;5027;53.560;10.062;2023-04-24T11:19:17;7.83;;;7.03;;
9972;SDS011;5027;53.560;10.062;2023-04-24T11:21:48;7.57;;;6.87;;
9972;SDS011;5027;53.560;10.062;2023-04-24T11:24:37;7.30;;;6.57;;
9972;SDS011;5027;53.560;10.062;2023-04-24T11:27:14;9.93;;;7.33;;
9972;SDS011;5027;53.560;10.062;2023-04-24T11:32:28;3.10;;;2.60;;
9972;SDS011;5027;53.560;10.062;2023-04-24T11:35:00;8.53;;;7.60;;
9972;SDS011;5027;53.560;10.062;2023-04-24T11:37:33;7.33;;;6.63;;
9972;SDS011;5027;53.560;10.062;2023-04-24T11:40:01;8.77;;;7.60;;
9972;SDS011;5027;53.560;10.062;2023-04-24T11:42:33;8.27;;;7.50;;
9972;SDS011;5027;53.560;10.062;2023-04-24T11:45:01;9.47;;;6.67;;
9972;SDS011;5027;53.560;10.062;2023-04-24T11:47:33;8.07;;;7.37;;
9972;SDS011;5027;53.560;10.062;2023-04-24T11:50:00;7.77;;;6.77;;
9972;SDS011;5027;53.560;10.062;2023-04-24T11:52:28;7.87;;;5.90;;
9972;SDS011;5027;53.560;10.062;2023-04-24T11:54:56;7.03;;;5.67;;
9972;SDS011;5027;53.560;10.062;2023-04-24T11:57:24;9.37;;;5.13;;
9972;SDS011;5027;53.560;10.062;2023-04-24T11:59:53;6.37;;;5.87;;
9972;SDS011;5027;53.560;10.062;2023-04-24T12:02:21;8.50;;;5.80;;
9972;SDS011;5027;53.560;10.062;2023-04-24T12:04:48;9.80;;;5.80;;
9972;SDS011;5027;53.560;10.062;2023-04-24T12:07:15;6.77;;;5.33;;
9972;SDS011;5027;53.560;10.062;2023-04-24T12:09:42;6.30;;;5.03;;
9972;SDS011;5027;53.560;10.062;2023-04-24T12:12:23;5.70;;;5.20;;
9972;SDS011;5027;53.560;10.062;2023-04-24T12:14:58;5.77;;;5.27;;
9972;SDS011;5027;53.560;10.062;2023-04-24T12:17:35;5.80;;;5.20;;
9972;SDS011;5027;53.560;10.062;2023-04-24T12:20:06;8.30;;;4.80;;
9972;SDS011;5027;53.560;10.062;2023-04-24T12:25:18;5.90;;;5.13;;
9972;SDS011;5027;53.560;10.062;2023-04-24T12:27:45;5.33;;;4.63;;
9972;SDS011;5027;53.560;10.062;2023-04-24T12:30:14;5.03;;;4.53;;
9972;SDS011;5027;53.560;10.062;2023-04-24T12:32:42;4.97;;;4.57;;
9972;SDS011;5027;53.560;10.062;2023-04-24T12:35:14;8.20;;;5.37;;
9972;SDS011;5027;53.560;10.062;2023-04-24T12:37:48;5.83;;;4.77;;
9972;SDS011;5027;53.560;10.062;2023-04-24T12:40:16;5.93;;;5.20;;
9972;SDS011;5027;53.560;10.062;2023-04-24T12:42:45;6.63;;;4.87;;
9972;SDS011;5027;53.560;10.062;2023-04-24T12:45:13;6.90;;;4.67;;
9972;SDS011;5027;53.560;10.062;2023-04-24T12:47:41;5.87;;;5.00;;
9972;SDS011;5027;53.560;10.062;2023-04-24T12:50:08;5.80;;;5.30;;
9972;SDS011;5027;53.560;10.062;2023-04-24T12:52:37;5.53;;;5.00;;
9972;SDS011;5027;53.560;10.062;2023-04-24T12:55:05;5.43;;;4.90;;
9972;SDS011;5027;53.560;10.062;2023-04-24T12:57:36;5.60;;;5.10;;
9972;SDS011;5027;53.560;10.062;2023-04-24T13:00:05;5.40;;;4.90;;
9972;SDS011;5027;53.560;10.062;2023-04-24T13:02:33;5.10;;;4.60;;
9972;SDS011;5027;53.560;10.062;2023-04-24T13:05:00;6.03;;;3.97;;
9972;SDS011;5027;53.560;10.062;2023-04-24T13:07:28;4.17;;;3.83;;
9972;SDS011;5027;53.560;10.062;2023-04-24T13:09:55;7.43;;;4.50;;
9972;SDS011;5027;53.560;10.062;2023-04-24T13:12:23;4.83;;;4.43;;
9972;SDS011;5027;53.560;10.062;2023-04-24T13:14:52;4.57;;;4.17;;
9972;SDS011;5027;53.560;10.062;2023-04-24T13:17:19;5.43;;;4.40;;
9972;SDS011;5027;53.560;10.062;2023-04-24T13:19:48;4.53;;;4.13;;
9972;SDS011;5027;53.560;10.062;2023-04-24T13:22:16;4.73;;;4.07;;
9972;SDS011;5027;53.560;10.062;2023-04-24T13:24:44;5.50;;;4.20;;
9972;SDS011;5027;53.560;10.062;2023-04-24T13:27:11;4.80;;;4.00;;
9972;SDS011;5027;53.560;10.062;2023-04-24T13:29:38;4.27;;;3.87;;
9972;SDS011;5027;53.560;10.062;2023-04-24T13:32:04;4.83;;;4.20;;
9972;SDS011;5027;53.560;10.062;2023-04-24T13:34:32;4.40;;;3.70;;
9972;SDS011;5027;53.560;10.062;2023-04-24T13:37:00;4.37;;;3.87;;
9972;SDS011;5027;53.560;10.062;2023-04-24T13:39:27;3.90;;;3.60;;
9972;SDS011;5027;53.560;10.062;2023-04-24T13:41:54;6.43;;;4.03;;
9972;SDS011;5027;53.560;10.062;2023-04-24T13:44:21;4.03;;;3.60;;
9972;SDS011;5027;53.560;10.062;2023-04-24T13:46:49;4.77;;;4.03;;
9972;SDS011;5027;53.560;10.062;2023-04-24T13:49:20;3.87;;;3.57;;
9972;SDS011;5027;53.560;10.062;2023-04-24T13:51:47;3.80;;;3.40;;
9972;SDS011;5027;53.560;10.062;2023-04-24T13:54:14;3.50;;;3.20;;
9972;SDS011;5027;53.560;10.062;2023-04-24T13:56:41;3.77;;;3.47;;
9972;SDS011;5027;53.560;10.062;2023-04-24T13:59:08;3.90;;;3.47;;
9972;SDS011;5027;53.560;10.062;2023-04-24T14:01:35;3.73;;;3.43;;
9972;SDS011;5027;53.560;10.062;2023-04-24T14:04:02;4.77;;;3.23;;
9972;SDS011;5027;53.560;10.062;2023-04-24T14:06:29;4.17;;;3.77;;
9972;SDS011;5027;53.560;10.062;2023-04-24T14:08:56;4.00;;;3.47;;
9972;SDS011;5027;53.560;10.062;2023-04-24T14:11:23;3.83;;;3.43;;
9972;SDS011;5027;53.560;10.062;2023-04-24T14:13:50;3.83;;;3.50;;
9972;SDS011;5027;53.560;10.062;2023-04-24T14:16:17;3.50;;;3.20;;
9972;SDS011;5027;53.560;10.062;2023-04-24T14:18:43;4.30;;;3.70;;
9972;SDS011;5027;53.560;10.062;2023-04-24T14:21:10;3.70;;;3.40;;
9972;SDS011;5027;53.560;10.062;2023-04-24T14:23:37;5.20;;;3.30;;
9972;SDS011;5027;53.560;10.062;2023-04-24T14:26:03;4.00;;;3.33;;
9972;SDS011;5027;53.560;10.062;2023-04-24T14:28:30;3.57;;;3.27;;
9972;SDS011;5027;53.560;10.062;2023-04-24T14:30:57;7.93;;;3.63;;
9972;SDS011;5027;53.560;10.062;2023-04-24T14:33:24;3.83;;;3.53;;
9972;SDS011;5027;53.560;10.062;2023-04-24T14:35:50;3.70;;;3.40;;
9972;SDS011;5027;53.560;10.062;2023-04-24T14:38:17;3.73;;;3.43;;
9972;SDS011;5027;53.560;10.062;2023-04-24T14:40:44;3.87;;;3.57;;
9972;SDS011;5027;53.560;10.062;2023-04-24T14:43:30;4.17;;;3.47;;
9972;SDS011;5027;53.560;10.062;2023-04-24T14:45:58;4.73;;;3.27;;
9972;SDS011;5027;53.560;10.062;2023-04-24T14:48:25;3.50;;;3.20;;
9972;SDS011;5027;53.560;10.062;2023-04-24T14:50:51;3.33;;;3.10;;
9972;SDS011;5027;53.560;10.062;2023-04-24T14:53:18;2.77;;;2.57;;
9972;SDS011;5027;53.560;10.062;2023-04-24T14:55:45;3.73;;;3.43;;
9972;SDS011;5027;53.560;10.062;2023-04-24T14:58:12;4.10;;;3.73;;
9972;SDS011;5027;53.560;10.062;2023-04-24T15:00:38;2.73;;;2.53;;
9972;SDS011;5027;53.560;10.062;2023-04-24T15:03:05;4.63;;;4.23;;
9972;SDS011;5027;53.560;10.062;2023-04-24T15:05:32;4.70;;;4.30;;
9972;SDS011;5027;53.560;10.062;2023-04-24T15:08:00;5.03;;;4.60;;
9972;SDS011;5027;53.560;10.062;2023-04-24T15:10:26;5.17;;;3.93;;
9972;SDS011;5027;53.560;10.062;2023-04-24T15:12:55;2.57;;;2.37;;
9972;SDS011;5027;53.560;10.062;2023-04-24T15:15:22;4.50;;;4.10;;